Time;durP1;ratioP1;P1;durP2;ratioP2;P2;SDS_P1;SDS_P2;PMS_P1;PMS_P2;Temp;Humidity;BMP_temperature;BMP_pressure;BME280_temperature;BME280_humidity;BME280_pressure;Samples;Min_cycle;Max_cycle;Signal;HPM_P1;HPM_P2
2020/12/22 00:01:24;;;;;;;26.27;20.27;;;10.30;99.90;;;;;;4974903;28;20564;-25
2020/12/22 00:03:51;;;;;;;25.00;19.43;;;10.20;99.90;;;;;;4973540;28;20905;-25
2020/12/22 00:06:22;;;;;;;23.10;19.27;;;10.30;99.90;;;;;;4970639;28;20457;-25
2020/12/22 00:08:49;;;;;;;21.73;19.40;;;10.30;99.90;;;;;;4971120;28;20781;-26
2020/12/22 00:11:15;;;;;;;19.93;16.93;;;10.30;99.90;;;;;;4971867;28;20472;-25
2020/12/22 00:13:42;;;;;;;20.83;18.30;;;10.30;99.90;;;;;;4971826;28;20808;-25
2020/12/22 00:16:09;;;;;;;16.80;14.23;;;10.30;99.90;;;;;;4937871;28;20932;-25
2020/12/22 00:18:36;;;;;;;19.40;14.10;;;10.30;99.90;;;;;;4971551;28;20497;-25
2020/12/22 00:21:04;;;;;;;17.97;15.50;;;10.30;99.90;;;;;;4953543;28;20524;-25
2020/12/22 00:23:30;;;;;;;17.17;14.10;;;10.30;99.90;;;;;;4977317;28;20548;-26
2020/12/22 00:26:01;;;;;;;18.80;15.67;;;10.30;99.90;;;;;;4968819;28;20456;-24
2020/12/22 00:28:30;;;;;;;20.70;16.07;;;10.40;99.90;;;;;;4973901;28;20564;-25
2020/12/22 00:30:57;;;;;;;15.63;13.97;;;10.40;99.90;;;;;;4975309;28;20477;-24
2020/12/22 00:33:23;;;;;;;16.93;14.97;;;10.40;99.90;;;;;;4974105;28;20507;-24
2020/12/22 00:35:51;;;;;;;15.00;13.33;;;10.40;99.90;;;;;;4971055;28;20457;-25
2020/12/22 00:38:18;;;;;;;15.83;14.10;;;10.40;99.90;;;;;;4971915;28;20473;-25
2020/12/22 00:40:44;;;;;;;14.73;13.03;;;10.40;99.90;;;;;;4970845;28;21094;-24
2020/12/22 00:43:11;;;;;;;15.57;12.70;;;10.40;99.90;;;;;;4971013;28;20520;-24
2020/12/22 00:45:37;;;;;;;14.23;11.50;;;10.40;99.90;;;;;;4970960;28;20449;-24
2020/12/22 00:48:04;;;;;;;15.07;13.50;;;10.40;99.90;;;;;;4972369;28;20445;-25
2020/12/22 00:50:31;;;;;;;13.40;12.00;;;10.40;99.90;;;;;;4971469;28;20472;-24
2020/12/22 00:52:58;;;;;;;15.40;13.80;;;10.40;99.90;;;;;;4969523;28;20466;-24
2020/12/22 00:55:25;;;;;;;16.43;13.60;;;10.40;99.90;;;;;;4970712;28;20453;-24
2020/12/22 00:57:56;;;;;;;14.00;12.50;;;10.40;99.90;;;;;;4971904;28;20727;-24
2020/12/22 01:00:24;;;;;;;13.60;12.20;;;10.40;99.90;;;;;;4970799;28;20693;-24
2020/12/22 01:02:51;;;;;;;14.93;13.37;;;10.30;99.90;;;;;;4971018;28;20442;-26
2020/12/22 01:05:17;;;;;;;13.53;11.50;;;10.20;99.90;;;;;;4970774;28;20923;-24
2020/12/22 01:07:44;;;;;;;13.23;11.80;;;10.20;99.90;;;;;;4970335;28;20544;-26
2020/12/22 01:10:11;;;;;;;11.90;10.67;;;10.30;99.90;;;;;;4971941;28;20923;-25
2020/12/22 01:12:38;;;;;;;11.97;10.77;;;10.20;99.90;;;;;;4971096;28;20718;-26
2020/12/22 01:15:05;;;;;;;13.57;12.17;;;10.20;99.90;;;;;;4970936;28;20457;-25
2020/12/22 01:17:31;;;;;;;13.83;10.37;;;10.20;99.90;;;;;;4969677;28;20437;-25
2020/12/22 01:19:58;;;;;;;17.23;11.17;;;10.20;99.90;;;;;;4969816;28;20747;-27
2020/12/22 01:22:24;;;;;;;12.90;11.60;;;10.30;99.90;;;;;;4971468;28;20452;-25
2020/12/22 01:24:51;;;;;;;11.80;10.60;;;10.30;99.90;;;;;;4971433;28;20442;-25
2020/12/22 01:27:18;;;;;;;11.97;10.80;;;10.30;99.90;;;;;;4971935;28;20793;-26
2020/12/22 01:29:45;;;;;;;10.63;9.57;;;10.30;99.90;;;;;;4970946;28;20771;-26
2020/12/22 01:32:12;;;;;;;12.83;11.63;;;10.30;99.90;;;;;;4971402;28;20776;-26
2020/12/22 01:34:39;;;;;;;13.80;8.60;;;10.30;99.90;;;;;;4972307;28;20528;-26
2020/12/22 01:37:11;;;;;;;11.90;10.57;;;10.30;99.90;;;;;;4971585;28;20453;-26
2020/12/22 01:39:37;;;;;;;10.77;9.77;;;10.30;99.90;;;;;;4970947;28;20746;-25
2020/12/22 01:42:07;;;;;;;10.83;9.53;;;10.20;99.90;;;;;;4970567;28;20649;-26
2020/12/22 01:44:35;;;;;;;10.00;9.10;;;10.30;99.90;;;;;;4970416;28;20908;-25
2020/12/22 01:47:01;;;;;;;9.80;8.90;;;10.30;99.90;;;;;;4967439;28;20527;-25
2020/12/22 01:49:28;;;;;;;8.83;8.00;;;10.20;99.90;;;;;;4970462;28;20548;-25
2020/12/22 01:51:57;;;;;;;5.67;5.07;;;10.30;99.90;;;;;;4969708;28;20579;-26
2020/12/22 01:54:25;;;;;;;6.13;5.53;;;10.40;99.90;;;;;;4970019;28;20445;-25
2020/12/22 01:56:52;;;;;;;4.83;4.43;;;10.40;99.90;;;;;;4970124;28;20438;-25
2020/12/22 01:59:19;;;;;;;4.60;4.30;;;10.50;99.90;;;;;;4970600;28;20453;-25
2020/12/22 02:01:48;;;;;;;5.17;4.67;;;10.60;99.90;;;;;;4970272;28;20449;-25
2020/12/22 02:04:16;;;;;;;3.50;3.17;;;10.70;99.90;;;;;;4969917;28;20955;-25
2020/12/22 02:06:43;;;;;;;3.60;3.30;;;10.80;99.90;;;;;;4971076;28;20454;-25
2020/12/22 02:09:11;;;;;;;3.13;2.93;;;10.90;99.90;;;;;;4970845;28;20437;-26
2020/12/22 02:11:39;;;;;;;2.70;2.50;;;10.90;99.90;;;;;;4970774;28;20484;-26
2020/12/22 02:14:08;;;;;;;4.33;2.70;;;11.00;99.90;;;;;;4969910;28;20461;-25
2020/12/22 02:16:35;;;;;;;2.20;2.10;;;11.00;99.90;;;;;;4969777;28;20449;-25
2020/12/22 02:19:03;;;;;;;2.60;2.40;;;11.00;99.90;;;;;;4968800;28;20441;-26
2020/12/22 02:21:30;;;;;;;2.17;1.97;;;11.10;99.90;;;;;;4971069;28;20488;-25
2020/12/22 02:23:57;;;;;;;2.47;2.27;;;11.20;99.90;;;;;;4971373;28;20445;-25
2020/12/22 02:26:25;;;;;;;2.47;2.37;;;11.20;99.90;;;;;;4972056;28;20753;-25
2020/12/22 02:28:54;;;;;;;3.00;2.77;;;11.30;99.90;;;;;;4971548;28;20531;-26
2020/12/22 02:31:23;;;;;;;3.00;2.80;;;11.40;99.90;;;;;;4971002;28;20911;-25
2020/12/22 02:33:50;;;;;;;2.73;2.53;;;11.40;99.90;;;;;;4969162;28;20766;-25
2020/12/22 02:36:16;;;;;;;2.93;2.80;;;11.40;99.90;;;;;;4969986;28;20528;-26
2020/12/22 02:38:44;;;;;;;3.00;2.80;;;11.40;99.90;;;;;;4969395;28;20484;-26
2020/12/22 02:41:11;;;;;;;2.23;2.13;;;11.30;99.90;;;;;;4970038;28;20465;-26
2020/12/22 02:43:38;;;;;;;2.73;2.63;;;11.30;99.90;;;;;;4969764;28;20561;-26
2020/12/22 02:46:05;;;;;;;2.77;2.57;;;11.20;99.90;;;;;;4970530;28;20453;-26
2020/12/22 02:48:32;;;;;;;2.20;2.10;;;11.20;99.90;;;;;;4970604;28;20867;-25
2020/12/22 02:50:58;;;;;;;2.30;2.13;;;11.20;99.90;;;;;;4969657;28;20556;-25
2020/12/22 02:53:26;;;;;;;2.70;2.50;;;11.30;99.90;;;;;;4969517;28;20741;-26
2020/12/22 02:55:54;;;;;;;2.33;2.13;;;11.40;99.90;;;;;;4971114;28;20456;-26
2020/12/22 02:58:20;;;;;;;2.07;1.97;;;11.40;99.90;;;;;;4971122;28;20860;-25
2020/12/22 03:00:47;;;;;;;2.37;2.27;;;11.40;99.90;;;;;;4970039;28;20512;-27
2020/12/22 03:03:13;;;;;;;2.57;2.47;;;11.50;99.90;;;;;;4969135;28;20507;-25
2020/12/22 03:05:41;;;;;;;2.47;2.37;;;11.50;99.90;;;;;;4971608;28;20883;-26
2020/12/22 03:08:09;;;;;;;2.40;2.30;;;11.50;99.90;;;;;;4968226;28;20449;-25
2020/12/22 03:10:36;;;;;;;2.07;1.97;;;11.50;99.90;;;;;;4969925;28;20445;-25
2020/12/22 03:13:03;;;;;;;1.93;1.83;;;11.50;99.90;;;;;;4968803;28;20855;-26
2020/12/22 03:15:30;;;;;;;2.17;2.07;;;11.50;99.90;;;;;;4969529;28;20808;-25
2020/12/22 03:17:57;;;;;;;1.90;1.80;;;11.50;99.90;;;;;;4970062;28;20539;-26
2020/12/22 03:20:24;;;;;;;1.90;1.80;;;11.50;99.90;;;;;;4970535;28;20437;-25
2020/12/22 03:22:51;;;;;;;2.20;2.10;;;11.50;99.90;;;;;;4968933;28;20437;-25
2020/12/22 03:25:18;;;;;;;2.10;2.00;;;11.50;99.90;;;;;;4969906;28;20493;-25
2020/12/22 03:27:46;;;;;;;2.07;1.97;;;11.60;99.90;;;;;;4970926;28;20448;-25
2020/12/22 03:30:16;;;;;;;1.80;1.70;;;11.60;99.90;;;;;;4971269;28;20761;-25
2020/12/22 03:32:43;;;;;;;2.00;1.90;;;11.50;99.90;;;;;;4972693;28;20698;-25
2020/12/22 03:35:11;;;;;;;1.60;1.60;;;11.60;99.90;;;;;;4973822;28;20480;-25
2020/12/22 03:37:38;;;;;;;1.80;1.70;;;11.60;99.90;;;;;;4972859;28;20449;-25
2020/12/22 03:40:06;;;;;;;1.80;1.70;;;11.60;99.90;;;;;;4972476;28;20806;-25
2020/12/22 03:42:33;;;;;;;1.70;1.60;;;11.60;99.90;;;;;;4973654;28;20449;-25
2020/12/22 03:45:00;;;;;;;1.90;1.80;;;11.70;99.90;;;;;;4971921;28;20715;-25
2020/12/22 03:47:28;;;;;;;1.80;1.70;;;11.80;99.90;;;;;;4970347;28;20473;-25
2020/12/22 03:49:55;;;;;;;1.80;1.70;;;11.80;99.90;;;;;;4971428;28;20456;-25
2020/12/22 03:52:22;;;;;;;1.83;1.73;;;11.80;99.90;;;;;;4971442;28;20906;-25
2020/12/22 03:54:48;;;;;;;1.90;1.80;;;11.80;99.90;;;;;;4971187;28;20499;-25
2020/12/22 03:57:16;;;;;;;1.70;1.60;;;11.90;99.90;;;;;;4970628;28;20544;-25
2020/12/22 03:59:42;;;;;;;1.80;1.50;;;11.80;99.90;;;;;;4971140;28;20492;-26
2020/12/22 04:02:09;;;;;;;1.60;1.60;;;11.80;99.90;;;;;;4971409;28;20441;-25
2020/12/22 04:04:36;;;;;;;1.50;1.50;;;11.70;99.90;;;;;;4969184;28;20913;-26
2020/12/22 04:07:04;;;;;;;3.07;1.30;;;11.80;99.90;;;;;;4969130;28;20453;-26
2020/12/22 04:09:30;;;;;;;3.20;1.77;;;11.80;99.90;;;;;;4970779;28;20540;-25
2020/12/22 04:11:57;;;;;;;1.60;1.50;;;11.80;99.90;;;;;;4970198;28;20713;-25
2020/12/22 04:14:23;;;;;;;2.00;1.90;;;11.80;99.90;;;;;;4969775;28;20501;-25
2020/12/22 04:16:50;;;;;;;1.90;1.80;;;11.90;99.90;;;;;;4969147;28;20461;-25
2020/12/22 04:19:17;;;;;;;2.73;2.53;;;11.90;99.90;;;;;;4969565;28;20807;-26
2020/12/22 04:21:44;;;;;;;2.63;2.53;;;11.80;99.90;;;;;;4969706;28;20441;-25
2020/12/22 04:24:11;;;;;;;6.47;4.47;;;11.90;99.90;;;;;;4970041;28;20465;-26
2020/12/22 04:26:38;;;;;;;2.57;2.47;;;11.90;99.90;;;;;;4968735;28;20441;-26
2020/12/22 04:29:04;;;;;;;2.00;1.90;;;11.80;99.90;;;;;;4970013;28;20489;-26
2020/12/22 04:31:31;;;;;;;3.63;3.43;;;11.80;99.90;;;;;;4969802;28;20613;-25
2020/12/22 04:33:59;;;;;;;3.67;3.47;;;11.70;99.90;;;;;;4970482;28;20468;-25
2020/12/22 04:36:25;;;;;;;2.17;2.07;;;11.80;99.90;;;;;;4969069;28;20469;-25
2020/12/22 04:38:54;;;;;;;1.70;1.60;;;11.80;99.90;;;;;;4969184;28;20469;-25
2020/12/22 04:41:22;;;;;;;1.60;1.50;;;11.80;99.90;;;;;;4969265;28;20507;-25
2020/12/22 04:43:50;;;;;;;1.30;1.30;;;11.80;99.90;;;;;;4968902;28;20492;-25
2020/12/22 04:46:19;;;;;;;2.13;1.83;;;11.90;99.90;;;;;;4969280;28;20460;-25
2020/12/22 04:48:51;;;;;;;1.53;1.43;;;11.90;99.90;;;;;;4968930;28;20438;-25
2020/12/22 04:51:19;;;;;;;1.30;1.30;;;11.90;99.90;;;;;;4968508;28;21087;-26
2020/12/22 04:53:45;;;;;;;1.80;1.70;;;12.00;99.90;;;;;;4967568;28;20472;-25
2020/12/22 04:56:13;;;;;;;1.70;1.20;;;12.00;99.90;;;;;;4968451;28;20450;-25
2020/12/22 04:58:41;;;;;;;1.50;1.40;;;12.00;99.90;;;;;;4966965;28;20460;-26
2020/12/22 05:01:08;;;;;;;1.40;1.40;;;12.10;99.90;;;;;;4965738;28;20575;-26
2020/12/22 05:03:34;;;;;;;1.80;1.37;;;12.10;99.90;;;;;;4967016;28;20460;-25
2020/12/22 05:06:01;;;;;;;1.50;1.40;;;12.10;99.90;;;;;;4967690;28;20470;-25
2020/12/22 05:08:28;;;;;;;1.30;1.30;;;12.10;99.90;;;;;;4967662;28;20468;-26
2020/12/22 05:10:55;;;;;;;1.90;1.80;;;12.20;99.90;;;;;;4968069;28;20461;-25
2020/12/22 05:13:22;;;;;;;1.27;1.27;;;12.20;99.90;;;;;;4966649;28;20508;-26
2020/12/22 05:15:50;;;;;;;2.40;1.20;;;12.20;99.90;;;;;;4965539;28;20501;-26
2020/12/22 05:18:20;;;;;;;1.30;1.30;;;12.10;99.90;;;;;;4964827;28;20709;-25
2020/12/22 05:20:47;;;;;;;1.57;1.57;;;12.20;99.90;;;;;;4965265;28;20562;-25
2020/12/22 05:23:15;;;;;;;1.40;1.30;;;12.20;99.90;;;;;;4965393;28;20436;-26
2020/12/22 05:25:43;;;;;;;1.40;1.40;;;12.20;99.90;;;;;;4965827;28;21044;-25
2020/12/22 05:28:12;;;;;;;1.43;1.40;;;12.10;99.90;;;;;;4964259;28;20444;-25
2020/12/22 05:30:40;;;;;;;1.47;1.37;;;12.10;99.90;;;;;;4965922;28;20822;-25
2020/12/22 05:33:07;;;;;;;1.50;1.40;;;12.20;99.90;;;;;;4966774;28;20473;-25
2020/12/22 05:35:34;;;;;;;2.40;1.47;;;12.30;99.90;;;;;;4967093;28;20734;-25
2020/12/22 05:38:02;;;;;;;1.90;1.40;;;12.30;99.90;;;;;;4966716;28;20543;-25
2020/12/22 05:40:29;;;;;;;1.40;1.40;;;12.30;99.90;;;;;;4965012;28;20754;-25
2020/12/22 05:42:57;;;;;;;1.70;1.60;;;12.30;99.90;;;;;;4963933;28;20536;-25
2020/12/22 05:45:23;;;;;;;1.63;1.53;;;12.30;99.90;;;;;;4964339;28;20468;-25
2020/12/22 05:47:54;;;;;;;1.80;1.70;;;12.30;99.90;;;;;;4965126;28;20935;-26
2020/12/22 05:50:22;;;;;;;1.23;1.23;;;12.30;99.90;;;;;;4945755;28;20478;-26
2020/12/22 05:52:52;;;;;;;1.40;1.30;;;12.30;99.90;;;;;;4964132;28;20477;-26
2020/12/22 05:55:29;;;;;;;1.70;1.53;;;12.30;99.90;;;;;;4963442;28;20448;-25
2020/12/22 05:58:10;;;;;;;1.40;1.30;;;12.30;99.90;;;;;;4961244;28;20441;-25
2020/12/22 06:00:38;;;;;;;1.30;1.30;;;12.40;99.90;;;;;;4962572;28;20504;-26
2020/12/22 06:03:08;;;;;;;1.57;1.47;;;12.40;99.90;;;;;;4960112;28;20917;-26
2020/12/22 06:05:37;;;;;;;1.67;1.60;;;12.40;99.90;;;;;;4960055;28;20452;-26
2020/12/22 06:08:10;;;;;;;1.40;1.40;;;12.40;99.90;;;;;;4963949;28;20810;-24
2020/12/22 06:10:37;;;;;;;1.40;1.40;;;12.40;99.90;;;;;;4962514;28;20920;-24
2020/12/22 06:13:05;;;;;;;1.30;1.20;;;12.40;99.90;;;;;;4963516;28;20548;-24
2020/12/22 06:15:36;;;;;;;1.37;1.37;;;12.50;99.90;;;;;;4971652;28;20591;-24
2020/12/22 06:18:11;;;;;;;1.57;1.47;;;12.40;99.90;;;;;;4986266;28;20506;-23
2020/12/22 06:20:39;;;;;;;1.33;1.33;;;12.40;99.90;;;;;;4983917;28;21038;-23
2020/12/22 06:23:08;;;;;;;2.60;2.40;;;12.40;99.90;;;;;;4978253;28;20467;-24
2020/12/22 06:25:35;;;;;;;1.50;1.40;;;12.40;99.90;;;;;;4980671;28;20437;-24
2020/12/22 06:28:02;;;;;;;2.60;2.40;;;12.40;99.90;;;;;;4980134;28;20925;-24
2020/12/22 06:30:35;;;;;;;3.03;2.63;;;12.40;99.90;;;;;;4971542;28;20456;-25
2020/12/22 06:33:23;;;;;;;3.50;2.30;;;12.40;99.90;;;;;;4959418;28;20803;-25
2020/12/22 06:36:01;;;;;;;2.40;2.23;;;12.40;99.90;;;;;;4962446;28;20502;-25
2020/12/22 06:38:55;;;;;;;1.43;1.43;;;12.40;99.90;;;;;;4976652;28;20491;-25
2020/12/22 06:41:46;;;;;;;2.50;1.70;;;12.30;99.90;;;;;;4982791;28;20502;-26
2020/12/22 06:44:25;;;;;;;2.67;1.63;;;12.40;99.90;;;;;;4978089;28;20900;-26
2020/12/22 06:46:52;;;;;;;1.83;1.40;;;12.30;99.90;;;;;;4969332;28;20534;-26
2020/12/22 06:49:35;;;;;;;1.50;1.50;;;12.40;99.90;;;;;;4974747;28;20584;-25
2020/12/22 06:52:01;;;;;;;1.60;1.50;;;12.40;99.90;;;;;;4973583;28;20575;-26
2020/12/22 06:54:32;;;;;;;2.40;2.30;;;12.40;99.90;;;;;;4975261;28;20734;-25
2020/12/22 06:56:59;;;;;;;2.10;1.90;;;12.50;99.90;;;;;;4972498;28;20800;-26
2020/12/22 06:59:50;;;;;;;1.70;1.60;;;12.40;99.90;;;;;;4965961;28;20460;-27
2020/12/22 07:02:31;;;;;;;1.30;1.30;;;12.50;99.90;;;;;;4970417;28;20627;-25
2020/12/22 07:04:59;;;;;;;1.60;1.50;;;12.50;99.90;;;;;;4970497;28;20562;-26
2020/12/22 07:07:26;;;;;;;1.87;1.43;;;12.40;99.90;;;;;;4962371;28;20866;-26
2020/12/22 07:10:03;;;;;;;2.53;1.70;;;12.40;99.90;;;;;;4971520;28;21231;-25
2020/12/22 07:12:31;;;;;;;1.37;1.37;;;12.50;99.90;;;;;;4972734;28;20464;-26
2020/12/22 07:14:58;;;;;;;3.63;3.33;;;12.50;99.90;;;;;;4974031;28;20869;-25
2020/12/22 07:17:26;;;;;;;1.50;1.40;;;12.50;99.90;;;;;;4957550;28;20455;-26
2020/12/22 07:19:54;;;;;;;1.80;1.70;;;12.50;99.90;;;;;;4973669;28;20550;-26
2020/12/22 07:22:23;;;;;;;2.10;2.00;;;12.40;99.90;;;;;;4971526;28;20510;-25
2020/12/22 07:24:50;;;;;;;1.60;1.50;;;12.40;99.90;;;;;;4974447;28;20448;-25
2020/12/22 07:27:16;;;;;;;13.23;12.10;;;12.40;99.90;;;;;;4972810;28;20450;-26
2020/12/22 07:29:43;;;;;;;1.93;1.83;;;12.30;99.90;;;;;;4968026;28;20452;-26
2020/12/22 07:32:11;;;;;;;2.50;1.90;;;12.20;99.90;;;;;;4971052;28;20476;-25
2020/12/22 07:34:38;;;;;;;1.80;1.70;;;12.30;99.90;;;;;;4971427;28;20661;-25
2020/12/22 07:37:06;;;;;;;2.10;2.00;;;12.40;99.90;;;;;;4973397;28;20495;-26
2020/12/22 07:39:34;;;;;;;2.27;2.17;;;12.50;99.90;;;;;;4967788;28;20925;-25
2020/12/22 07:42:09;;;;;;;3.13;2.60;;;12.50;99.90;;;;;;4939539;28;20452;-25
2020/12/22 07:44:37;;;;;;;2.87;2.67;;;12.50;99.90;;;;;;4938075;28;21176;-26
2020/12/22 07:47:04;;;;;;;5.10;3.73;;;12.50;99.90;;;;;;4942205;28;20449;-25
2020/12/22 07:49:30;;;;;;;8.00;7.20;;;12.50;99.90;;;;;;4940679;28;21113;-25
2020/12/22 07:51:57;;;;;;;11.13;9.70;;;12.50;99.90;;;;;;4954494;28;20946;-25
2020/12/22 07:54:26;;;;;;;15.70;14.20;;;12.50;99.90;;;;;;4956374;28;20438;-25
2020/12/22 07:56:59;;;;;;;13.47;12.07;;;12.50;99.90;;;;;;4953814;28;20556;-25
2020/12/22 07:59:26;;;;;;;9.90;7.80;;;12.50;99.90;;;;;;4949676;28;20682;-24
2020/12/22 08:01:54;;;;;;;6.90;6.30;;;12.50;99.90;;;;;;4946124;28;20536;-24
2020/12/22 08:04:22;;;;;;;5.63;4.93;;;12.50;99.90;;;;;;4956611;28;20580;-24
2020/12/22 08:06:54;;;;;;;4.50;4.20;;;12.50;99.90;;;;;;4943572;28;20457;-25
2020/12/22 08:09:42;;;;;;;5.70;5.23;;;12.40;99.90;;;;;;4936336;29;20461;-25
2020/12/22 08:12:10;;;;;;;4.53;4.10;;;12.40;99.90;;;;;;4934507;29;20470;-24
2020/12/22 08:14:40;;;;;;;4.87;4.37;;;12.50;99.90;;;;;;4939155;28;20462;-25
2020/12/22 08:17:16;;;;;;;6.00;5.40;;;12.50;99.90;;;;;;4939232;29;20884;-24
2020/12/22 08:19:43;;;;;;;6.20;4.53;;;12.50;99.90;;;;;;4956748;28;20456;-24
2020/12/22 08:22:17;;;;;;;5.60;5.20;;;12.50;99.90;;;;;;4957458;28;20445;-26
2020/12/22 08:24:44;;;;;;;5.50;5.00;;;12.50;99.90;;;;;;4958731;28;20829;-24
2020/12/22 08:27:12;;;;;;;6.30;5.70;;;12.50;99.90;;;;;;4958947;28;20441;-24
2020/12/22 08:29:43;;;;;;;6.90;6.20;;;12.50;99.90;;;;;;4956608;28;21155;-26
2020/12/22 08:32:42;;;;;;;7.03;6.27;;;12.60;99.90;;;;;;4941198;28;21119;-26
2020/12/22 08:35:12;;;;;;;8.37;7.50;;;12.60;99.90;;;;;;4954353;28;20448;-23
2020/12/22 08:37:40;;;;;;;9.27;8.37;;;12.60;99.90;;;;;;4956151;28;20465;-26
2020/12/22 08:40:07;;;;;;;8.97;8.07;;;12.70;99.90;;;;;;4965282;28;20481;-25
2020/12/22 08:42:36;;;;;;;7.90;7.10;;;12.70;99.90;;;;;;4962214;28;20552;-25
2020/12/22 08:45:02;;;;;;;6.83;6.17;;;12.70;99.90;;;;;;4960646;28;20515;-24
2020/12/22 08:47:29;;;;;;;6.40;5.80;;;12.70;99.90;;;;;;4958539;28;20543;-25
2020/12/22 08:50:08;;;;;;;8.10;7.30;;;12.80;99.90;;;;;;4960315;28;20459;-25
2020/12/22 08:52:36;;;;;;;13.67;9.90;;;12.80;99.90;;;;;;4955293;28;20849;-25
2020/12/22 08:55:02;;;;;;;10.07;9.10;;;12.90;99.90;;;;;;4956239;28;20472;-25
2020/12/22 08:57:30;;;;;;;12.33;9.80;;;12.90;99.90;;;;;;4955977;28;20450;-25
2020/12/22 08:59:58;;;;;;;9.10;6.80;;;12.90;99.90;;;;;;4954634;28;20516;-25
2020/12/22 09:02:27;;;;;;;9.00;5.80;;;12.90;99.90;;;;;;4954201;28;20509;-25
2020/12/22 09:04:55;;;;;;;6.17;5.57;;;12.90;99.90;;;;;;4956438;28;20449;-25
2020/12/22 09:07:24;;;;;;;4.53;4.13;;;12.90;99.90;;;;;;4958632;28;20453;-25
2020/12/22 09:09:52;;;;;;;10.90;7.57;;;12.90;99.90;;;;;;4954529;28;20468;-26
2020/12/22 09:12:20;;;;;;;13.70;6.70;;;13.00;99.90;;;;;;4955103;28;20942;-26
2020/12/22 09:14:47;;;;;;;41.73;24.77;;;13.00;99.90;;;;;;4957257;28;20511;-25
2020/12/22 09:17:27;;;;;;;31.73;18.17;;;13.10;99.90;;;;;;4957509;28;20449;-25
2020/12/22 09:19:54;;;;;;;32.10;17.70;;;13.20;99.90;;;;;;4954958;28;21207;-26
2020/12/22 09:22:22;;;;;;;71.90;38.60;;;13.30;99.90;;;;;;4948708;28;20442;-25
2020/12/22 09:24:51;;;;;;;43.40;25.80;;;13.30;99.90;;;;;;4938141;28;20500;-25
2020/12/22 09:27:17;;;;;;;9.80;7.80;;;13.40;99.90;;;;;;4956834;28;20442;-26
2020/12/22 09:30:03;;;;;;;20.07;12.93;;;13.40;99.90;;;;;;4953055;28;20515;-25
2020/12/22 09:32:31;;;;;;;12.37;10.40;;;13.40;99.90;;;;;;4944662;28;20513;-25
2020/12/22 09:34:58;;;;;;;6.77;5.70;;;13.40;99.90;;;;;;4937816;28;21027;-25
2020/12/22 09:37:25;;;;;;;5.73;5.23;;;13.40;99.90;;;;;;4954255;28;20774;-25
2020/12/22 09:39:53;;;;;;;5.37;4.97;;;13.40;99.90;;;;;;4950664;28;20451;-25
2020/12/22 09:42:20;;;;;;;3.20;2.90;;;13.40;99.90;;;;;;4956325;28;20488;-25
2020/12/22 09:44:47;;;;;;;2.50;2.40;;;13.30;99.90;;;;;;4957254;28;21308;-25
2020/12/22 09:47:13;;;;;;;2.50;2.30;;;13.30;99.90;;;;;;4950387;28;20492;-25
2020/12/22 09:49:41;;;;;;;2.63;2.40;;;13.30;99.90;;;;;;4953853;28;20541;-25
2020/12/22 09:52:09;;;;;;;2.67;2.47;;;13.30;99.90;;;;;;4951906;28;20783;-25
2020/12/22 09:54:36;;;;;;;3.13;2.80;;;13.30;99.90;;;;;;4953779;28;20574;-25
2020/12/22 09:57:03;;;;;;;2.37;2.27;;;13.40;99.90;;;;;;4955318;28;20864;-25
2020/12/22 09:59:30;;;;;;;2.30;1.73;;;13.50;99.90;;;;;;4952769;28;20492;-25
2020/12/22 10:01:58;;;;;;;2.33;2.23;;;13.60;99.90;;;;;;4955028;28;20441;-26
2020/12/22 10:04:25;;;;;;;5.90;2.37;;;13.70;99.90;;;;;;4952887;28;20717;-25
2020/12/22 10:06:52;;;;;;;2.20;2.00;;;13.80;99.90;;;;;;4954879;28;20496;-25
2020/12/22 10:09:19;;;;;;;3.40;2.10;;;13.80;99.90;;;;;;4948394;28;20487;-25
2020/12/22 10:11:46;;;;;;;2.27;2.13;;;13.80;99.90;;;;;;4956236;28;20569;-25
2020/12/22 10:14:13;;;;;;;3.40;2.30;;;13.90;99.90;;;;;;4956073;28;20893;-25
2020/12/22 10:16:40;;;;;;;2.50;2.00;;;13.90;99.90;;;;;;4954705;28;20525;-25
2020/12/22 10:19:07;;;;;;;3.40;2.00;;;13.80;99.90;;;;;;4953589;28;20985;-26
2020/12/22 10:21:33;;;;;;;4.90;1.60;;;13.80;99.90;;;;;;4950956;28;21011;-25
2020/12/22 10:24:04;;;;;;;1.00;1.00;;;13.70;99.90;;;;;;4954145;28;20465;-26
2020/12/22 10:26:31;;;;;;;1.17;1.10;;;13.70;99.90;;;;;;4944538;28;21111;-25
2020/12/22 10:28:58;;;;;;;1.90;1.50;;;13.60;99.90;;;;;;4951932;28;21261;-25
2020/12/22 10:31:27;;;;;;;1.67;1.57;;;13.40;99.90;;;;;;4951387;28;20466;-25
2020/12/22 10:33:56;;;;;;;1.37;1.27;;;13.50;99.90;;;;;;4952199;28;20521;-26
2020/12/22 10:36:23;;;;;;;1.47;1.33;;;13.50;99.90;;;;;;4953848;28;20631;-25
2020/12/22 10:38:50;;;;;;;6.40;3.20;;;13.50;99.90;;;;;;4937895;28;20461;-25
2020/12/22 10:41:19;;;;;;;2.93;1.80;;;13.60;99.90;;;;;;4931772;28;20484;-25
2020/12/22 10:43:45;;;;;;;4.20;2.23;;;13.80;99.90;;;;;;4933324;28;20435;-25
2020/12/22 10:46:12;;;;;;;3.30;2.13;;;13.90;99.90;;;;;;4950135;28;20506;-25
2020/12/22 10:48:39;;;;;;;4.53;2.23;;;13.90;99.90;;;;;;4951819;28;20549;-25
2020/12/22 10:51:06;;;;;;;2.60;1.57;;;13.90;99.90;;;;;;4952495;28;20502;-25
2020/12/22 10:53:33;;;;;;;2.00;1.60;;;14.00;99.90;;;;;;4953708;28;20472;-25
2020/12/22 10:55:59;;;;;;;1.33;1.23;;;14.00;99.90;;;;;;4950035;28;20576;-26
2020/12/22 10:58:27;;;;;;;2.20;1.67;;;14.00;99.90;;;;;;4955143;28;20497;-25
2020/12/22 11:00:54;;;;;;;1.80;1.70;;;14.00;99.90;;;;;;4951230;28;20485;-26
2020/12/22 11:03:20;;;;;;;7.13;1.87;;;14.00;99.90;;;;;;4924513;29;20665;-26
2020/12/22 11:06:04;;;;;;;2.73;1.63;;;14.10;99.90;;;;;;4921626;29;20897;-25
2020/12/22 11:08:32;;;;;;;2.73;2.53;;;14.10;99.90;;;;;;4925409;29;20450;-26
2020/12/22 11:10:58;;;;;;;4.63;2.10;;;14.20;99.90;;;;;;4928425;29;20553;-26
2020/12/22 11:13:25;;;;;;;3.87;2.33;;;14.20;99.90;;;;;;4926274;29;20778;-26
2020/12/22 11:15:52;;;;;;;2.47;2.37;;;14.20;99.90;;;;;;4926979;29;20913;-26
2020/12/22 11:18:20;;;;;;;2.30;2.10;;;14.30;99.90;;;;;;4927015;29;20467;-25
2020/12/22 11:20:46;;;;;;;2.20;2.00;;;14.30;99.90;;;;;;4926965;29;21164;-26
2020/12/22 11:23:13;;;;;;;2.83;1.90;;;14.30;99.90;;;;;;4918910;29;21129;-26
2020/12/22 11:25:39;;;;;;;3.60;2.47;;;14.30;99.90;;;;;;4925912;29;20441;-25
2020/12/22 11:28:06;;;;;;;2.27;1.70;;;14.30;99.90;;;;;;4928666;29;20787;-26
2020/12/22 11:30:33;;;;;;;2.57;2.10;;;14.20;99.90;;;;;;4929352;29;20485;-26
2020/12/22 11:33:00;;;;;;;2.43;2.23;;;14.20;99.90;;;;;;4927290;29;20577;-25
2020/12/22 11:35:26;;;;;;;1.70;1.60;;;14.20;99.90;;;;;;4927595;29;20703;-26
2020/12/22 11:37:56;;;;;;;1.67;1.57;;;14.30;99.90;;;;;;4923860;29;21066;-26
2020/12/22 11:40:23;;;;;;;1.50;1.40;;;14.30;99.90;;;;;;4927221;29;20508;-25
2020/12/22 11:42:49;;;;;;;1.73;1.60;;;14.20;99.90;;;;;;4928461;29;20761;-26
2020/12/22 11:45:16;;;;;;;2.23;2.10;;;14.20;99.90;;;;;;4925894;29;20895;-25
2020/12/22 11:47:43;;;;;;;1.97;1.80;;;14.20;99.90;;;;;;4925098;28;20708;-26
2020/12/22 11:50:10;;;;;;;2.67;2.47;;;14.20;99.90;;;;;;4929617;29;20446;-25
2020/12/22 11:52:37;;;;;;;2.87;2.60;;;14.20;99.90;;;;;;4927763;29;20477;-25
2020/12/22 11:55:04;;;;;;;2.70;2.50;;;14.30;99.90;;;;;;4933919;29;20528;-26
2020/12/22 11:57:32;;;;;;;4.70;1.90;;;14.20;99.90;;;;;;4904869;29;20693;-26
2020/12/22 11:59:58;;;;;;;3.70;2.30;;;14.20;99.90;;;;;;4919032;28;20596;-25
2020/12/22 12:02:25;;;;;;;1.40;1.40;;;14.10;99.90;;;;;;4932407;29;20466;-25
2020/12/22 12:04:51;;;;;;;3.70;1.70;;;14.20;99.90;;;;;;4928778;29;20434;-25
2020/12/22 12:07:19;;;;;;;1.97;1.80;;;14.20;99.90;;;;;;4932622;29;20474;-26
2020/12/22 12:09:45;;;;;;;1.40;1.30;;;14.20;99.90;;;;;;4931850;29;20780;-25
2020/12/22 12:12:13;;;;;;;1.37;1.30;;;14.20;99.90;;;;;;4929339;29;20481;-26
2020/12/22 12:14:39;;;;;;;1.67;1.40;;;14.20;99.90;;;;;;4929656;29;20738;-26
2020/12/22 12:17:06;;;;;;;1.10;1.10;;;14.20;99.90;;;;;;4935019;29;20450;-25
2020/12/22 12:19:33;;;;;;;1.30;1.30;;;14.30;99.90;;;;;;4934329;29;20715;-25
2020/12/22 12:22:00;;;;;;;1.43;1.37;;;14.30;99.90;;;;;;4931761;29;20473;-25
2020/12/22 12:24:27;;;;;;;1.47;1.37;;;14.30;99.90;;;;;;4932642;29;20504;-26
2020/12/22 12:26:54;;;;;;;1.33;1.27;;;14.30;99.90;;;;;;4931872;29;20466;-26
2020/12/22 12:29:21;;;;;;;1.67;1.57;;;14.30;99.90;;;;;;4928961;29;20703;-26
2020/12/22 12:31:48;;;;;;;1.67;1.47;;;14.30;99.90;;;;;;4930014;29;20933;-25
2020/12/22 12:34:18;;;;;;;1.53;1.43;;;14.30;99.90;;;;;;4930755;29;20453;-25
2020/12/22 12:36:46;;;;;;;1.63;1.53;;;14.20;99.90;;;;;;4930814;29;20468;-25
2020/12/22 12:39:12;;;;;;;1.67;1.30;;;14.20;99.90;;;;;;4931891;29;21109;-26
2020/12/22 12:41:40;;;;;;;1.90;1.60;;;14.20;99.90;;;;;;4928730;29;20446;-26
2020/12/22 12:44:06;;;;;;;3.30;3.10;;;14.20;99.90;;;;;;4929260;29;20714;-26
2020/12/22 12:46:33;;;;;;;1.80;1.70;;;14.30;99.90;;;;;;4930121;29;20542;-25
2020/12/22 12:48:59;;;;;;;1.50;1.40;;;14.30;99.90;;;;;;4928251;29;20489;-26